Main page
METAR-TAF:

METAR-TAF

Airports :

Augusto Severo International Airport

Natal, Rio Grande do Norte, Brazil

latitude: 05-55S, longitude: 035-15W, elevation: 52 m

Current weather observation

The report was made 54 minutes ago, at 15:00 UTC
Wind 18 kt from the Southeast
Temperature 31°C
Humidity 55%
Pressure 1014 hPa
Visibility 10 km or more
Scattered clouds at a height of 3500 ft

METAR: SBNT 161500Z 14018KT 9999 SCT035 31/21 Q1014

Time: 12:54 (15:54 UTC)

Forecast

The report was made 5 hours and 54 minutes ago, at 10:00 UTC
Forecast valid from 16 at 12 UTC to 16 at 24 UTC
Wind 15 kt from the Southeast
Visibility 10 km or more
Few clouds at a height of 2000 ft
Becoming
from 16 at 15 UTC to 16 at 17 UTC
Wind 20 kt from the East
Scattered clouds at a height of 3000 ft
Becoming
from 16 at 21 UTC to 16 at 23 UTC
Wind 10 kt from the Southeast

TAF: SBNT 161000Z 1612/1624 13015KT 9999 FEW020 TN28/1612Z TX30/1614Z BECMG 1615/1617 10020KT SCT030 BECMG 1621/1623 13010KT RMK PEH

Weather observations and forecasts of more than 4000 airports (METAR and TAF reports).

The available stations are represented by yellow and red dots on the map.

Hover mouse over dot to see the name of the station.

Then click to see weather observations and forecasts.

To change the map : click on the green buttons with a black cross to zoom in, on the green button with a dash to zoom out, or on the green arrows for adjacent maps.


METAR-TAF: